Back to Top

Language: 

My Weather Underground Personal Weather Station Historical Data with Graphs...

Delerius Weather Station Historical Data
Daily Summary for January 11, 2017 Units:  English    Metric   Both
« Previous Day
Next Day »
Daily Weekly Monthly Yearly Custom
  High: Low: Average:
Temperature: 52.0 °F 39.6 °F 45.6 °F
Dew Point: 47.4 °F 32.5 °F 38 °F
Humidity: 92 % 61 % 75 %
Wind Speed: 31.0 mph 7.0 mph 20.1 mph
Wind Gust: 58.0 mph - -
Wind:- - West
Pressure: 29.78 in 29.52 in -
Precipitation: 0.00 in    
Historical Graphs
 
 
Tabular Data for January 11, 2017
Time Temperature Dew Point Pressure Wind Wind Speed Wind Gust Humidity Rainfall Rate (Hourly) solar Conditions
00:01 47.7 °F 43.7 °F 29.68 in WSW 12.0 mph -999.0 mph 86 % 0.00 in 0 W/m2
00:06 47.7 °F 43.7 °F 29.68 in WSW 12.0 mph -999.0 mph 86 % 0.00 in 0 W/m2
00:11 47.7 °F 43.7 °F 29.68 in WSW 12.0 mph -999.0 mph 86 % 0.00 in 0 W/m2
00:16 47.7 °F 43.7 °F 29.68 in WSW 12.0 mph -999.0 mph 86 % 0.00 in 0 W/m2
00:21 47.7 °F 43.7 °F 29.68 in WSW 12.0 mph -999.0 mph 86 % 0.00 in 0 W/m2
00:26 47.8 °F 43.8 °F 29.68 in WSW 14.0 mph -999.0 mph 86 % 0.00 in 0 W/m2
00:31 47.8 °F 43.8 °F 29.68 in WSW 14.0 mph -999.0 mph 86 % 0.00 in 0 W/m2
00:36 47.8 °F 43.8 °F 29.68 in WSW 14.0 mph -999.0 mph 86 % 0.00 in 0 W/m2
00:41 48.0 °F 44.3 °F 29.66 in WSW 17.0 mph -999.0 mph 87 % 0.00 in 0 W/m2
00:46 48.0 °F 44.3 °F 29.66 in WSW 17.0 mph -999.0 mph 87 % 0.00 in 0 W/m2
00:51 48.0 °F 44.3 °F 29.66 in WSW 17.0 mph -999.0 mph 87 % 0.00 in 0 W/m2
00:56 48.1 °F 44.7 °F 29.66 in WSW 16.0 mph -999.0 mph 88 % 0.00 in 0 W/m2
01:01 48.1 °F 44.7 °F 29.66 in WSW 16.0 mph -999.0 mph 88 % 0.00 in 0 W/m2
01:06 48.1 °F 44.7 °F 29.66 in WSW 16.0 mph -999.0 mph 88 % 0.00 in 0 W/m2
01:11 48.0 °F 44.6 °F 29.66 in WSW 12.0 mph -999.0 mph 88 % 0.00 in 0 W/m2
01:16 48.0 °F 44.6 °F 29.66 in WSW 12.0 mph -999.0 mph 88 % 0.00 in 0 W/m2
01:21 48.0 °F 44.6 °F 29.66 in WSW 12.0 mph -999.0 mph 88 % 0.00 in 0 W/m2
01:26 47.7 °F 44.6 °F 29.64 in SW 9.0 mph -999.0 mph 89 % 0.00 in 0 W/m2
01:31 47.7 °F 44.6 °F 29.64 in SW 9.0 mph -999.0 mph 89 % 0.00 in 0 W/m2
01:36 47.7 °F 44.6 °F 29.64 in SW 9.0 mph -999.0 mph 89 % 0.00 in 0 W/m2
01:41 47.5 °F 44.4 °F 29.63 in SW 8.0 mph -999.0 mph 89 % 0.00 in 0 W/m2
01:46 47.5 °F 44.4 °F 29.63 in SW 8.0 mph -999.0 mph 89 % 0.00 in 0 W/m2
01:51 47.5 °F 44.4 °F 29.63 in SW 8.0 mph -999.0 mph 89 % 0.00 in 0 W/m2
01:56 47.2 °F 44.4 °F 29.62 in SW 10.0 mph -999.0 mph 90 % 0.00 in 0 W/m2
02:01 47.2 °F 44.4 °F 29.62 in SW 10.0 mph -999.0 mph 90 % 0.00 in 0 W/m2
02:06 47.2 °F 44.4 °F 29.62 in SW 10.0 mph -999.0 mph 90 % 0.00 in 0 W/m2
02:11 47.1 °F 44.6 °F 29.62 in SW 11.0 mph -999.0 mph 91 % 0.00 in 0 W/m2
02:16 47.1 °F 44.6 °F 29.62 in SW 11.0 mph -999.0 mph 91 % 0.00 in 0 W/m2
02:21 47.1 °F 44.6 °F 29.62 in SW 11.0 mph -999.0 mph 91 % 0.00 in 0 W/m2
02:26 47.3 °F 44.8 °F 29.61 in SW 7.0 mph -999.0 mph 91 % 0.00 in 0 W/m2
02:31 47.3 °F 44.8 °F 29.61 in SW 7.0 mph -999.0 mph 91 % 0.00 in 0 W/m2
02:36 47.3 °F 44.8 °F 29.61 in SW 7.0 mph -999.0 mph 91 % 0.00 in 0 W/m2
02:41 47.7 °F 45.5 °F 29.61 in SW 9.0 mph -999.0 mph 92 % 0.00 in 0 W/m2
02:46 47.7 °F 45.5 °F 29.61 in SW 9.0 mph -999.0 mph 92 % 0.00 in 0 W/m2
02:51 47.7 °F 45.5 °F 29.61 in SW 9.0 mph -999.0 mph 92 % 0.00 in 0 W/m2
02:56 48.7 °F 46.2 °F 29.60 in West 13.0 mph -999.0 mph 91 % 0.00 in 0 W/m2
03:01 48.7 °F 46.2 °F 29.60 in West 13.0 mph -999.0 mph 91 % 0.00 in 0 W/m2
03:06 48.7 °F 46.2 °F 29.60 in West 13.0 mph -999.0 mph 91 % 0.00 in 0 W/m2
03:11 49.7 °F 46.9 °F 29.60 in West 16.0 mph -999.0 mph 90 % 0.00 in 0 W/m2
03:16 49.7 °F 46.9 °F 29.60 in West 16.0 mph -999.0 mph 90 % 0.00 in 0 W/m2
03:21 49.7 °F 46.9 °F 29.60 in West 16.0 mph -999.0 mph 90 % 0.00 in 0 W/m2
03:26 51.1 °F 47.4 °F 29.59 in West 17.0 mph -999.0 mph 87 % 0.00 in 0 W/m2
03:31 51.1 °F 47.4 °F 29.59 in West 17.0 mph -999.0 mph 87 % 0.00 in 0 W/m2
03:36 51.1 °F 47.4 °F 29.59 in West 17.0 mph -999.0 mph 87 % 0.00 in 0 W/m2
03:41 51.8 °F 47.4 °F 29.56 in West 16.0 mph -999.0 mph 85 % 0.00 in 0 W/m2
03:46 51.8 °F 47.4 °F 29.56 in West 16.0 mph -999.0 mph 85 % 0.00 in 0 W/m2
03:51 51.8 °F 47.4 °F 29.56 in West 16.0 mph -999.0 mph 85 % 0.00 in 0 W/m2
03:56 52.0 °F 47.3 °F 29.55 in West 17.0 mph -999.0 mph 84 % 0.00 in 0 W/m2
04:01 52.0 °F 47.3 °F 29.55 in West 17.0 mph -999.0 mph 84 % 0.00 in 0 W/m2
04:06 52.0 °F 47.3 °F 29.55 in West 17.0 mph -999.0 mph 84 % 0.00 in 0 W/m2
04:11 52.0 °F 47.0 °F 29.54 in West 22.0 mph -999.0 mph 83 % 0.00 in 0 W/m2
04:16 52.0 °F 47.0 °F 29.54 in West 22.0 mph -999.0 mph 83 % 0.00 in 0 W/m2
04:21 52.0 °F 47.0 °F 29.54 in West 22.0 mph -999.0 mph 83 % 0.00 in 0 W/m2
04:26 51.9 °F 46.6 °F 29.53 in West 23.0 mph -999.0 mph 82 % 0.00 in 0 W/m2
04:31 51.9 °F 46.6 °F 29.53 in West 23.0 mph -999.0 mph 82 % 0.00 in 0 W/m2
04:36 51.9 °F 46.6 °F 29.53 in West 23.0 mph -999.0 mph 82 % 0.00 in 0 W/m2
04:41 51.7 °F 46.7 °F 29.53 in West 23.0 mph -999.0 mph 83 % 0.00 in 0 W/m2
04:46 51.7 °F 46.7 °F 29.53 in West 23.0 mph -999.0 mph 83 % 0.00 in 0 W/m2
04:51 51.7 °F 46.7 °F 29.53 in West 23.0 mph -999.0 mph 83 % 0.00 in 0 W/m2
04:56 51.3 °F 46.3 °F 29.52 in WNW 23.0 mph -999.0 mph 83 % 0.00 in 0 W/m2
05:01 51.3 °F 46.3 °F 29.52 in WNW 23.0 mph -999.0 mph 83 % 0.00 in 0 W/m2
05:06 51.3 °F 46.3 °F 29.52 in WNW 23.0 mph -999.0 mph 83 % 0.00 in 0 W/m2
05:11 50.6 °F 43.0 °F 29.52 in WNW 26.0 mph -999.0 mph 75 % 0.00 in 0 W/m2
05:16 50.6 °F 43.0 °F 29.52 in WNW 26.0 mph -999.0 mph 75 % 0.00 in 0 W/m2
05:21 50.6 °F 43.0 °F 29.52 in WNW 26.0 mph -999.0 mph 75 % 0.00 in 0 W/m2
05:26 49.7 °F 42.4 °F 29.52 in WNW 24.0 mph -999.0 mph 76 % 0.00 in 0 W/m2
05:31 49.7 °F 42.4 °F 29.52 in WNW 24.0 mph -999.0 mph 76 % 0.00 in 0 W/m2
05:36 49.7 °F 42.4 °F 29.52 in WNW 24.0 mph -999.0 mph 76 % 0.00 in 0 W/m2
05:41 48.9 °F 41.0 °F 29.52 in WNW 26.0 mph -999.0 mph 74 % 0.00 in 0 W/m2
05:46 48.9 °F 41.0 °F 29.52 in WNW 26.0 mph -999.0 mph 74 % 0.00 in 0 W/m2
05:51 48.9 °F 41.0 °F 29.52 in WNW 26.0 mph -999.0 mph 74 % 0.00 in 0 W/m2
05:56 48.4 °F 38.7 °F 29.54 in WNW 26.0 mph -999.0 mph 69 % 0.00 in 0 W/m2
06:10 48.0 °F 37.9 °F 29.55 in West 26.0 mph 26.0 mph 68 % 0.00 in 0 W/m2
06:20 47.9 °F 37.5 °F 29.55 in WNW 27.0 mph 37.0 mph 67 % 0.00 in 0 W/m2
06:30 47.7 °F 37.7 °F 29.55 in North 24.0 mph 26.0 mph 68 % 0.00 in 0 W/m2
06:35 47.7 °F 37.7 °F 29.55 in WNW 25.0 mph 30.0 mph 68 % 0.00 in 0 W/m2
06:40 47.7 °F 37.7 °F 29.55 in WNW 26.0 mph 30.0 mph 68 % 0.00 in 0 W/m2
06:45 47.5 °F 37.8 °F 29.55 in WNW 23.0 mph 23.0 mph 69 % 0.00 in 0 W/m2
06:55 47.4 °F 38.5 °F 29.58 in West 21.0 mph 22.0 mph 71 % 0.00 in 0 W/m2
07:05 47.3 °F 39.4 °F 29.57 in West 22.0 mph 58.0 mph 74 % 0.00 in 0 W/m2
07:10 47.2 °F 39.3 °F 29.58 in West 21.0 mph 58.0 mph 74 % 0.00 in 0 W/m2
07:15 47.1 °F 39.6 °F 29.59 in SW 22.0 mph 58.0 mph 75 % 0.00 in 0 W/m2
07:20 47.1 °F 39.2 °F 29.59 in WNW 23.0 mph 23.0 mph 74 % 0.00 in 0 W/m2
07:25 46.9 °F 39.0 °F 29.59 in West 21.0 mph 26.0 mph 74 % 0.00 in 0 W/m2
07:30 46.7 °F 38.5 °F 29.59 in WNW 20.0 mph 20.0 mph 73 % 0.00 in 0 W/m2
07:35 46.6 °F 38.4 °F 29.59 in West 19.0 mph 58.0 mph 73 % 0.00 in 0 W/m2
07:45 46.4 °F 37.5 °F 29.60 in WNW 19.0 mph 23.0 mph 71 % 0.00 in 0 W/m2
07:50 46.4 °F 37.5 °F 29.59 in West 21.0 mph 58.0 mph 71 % 0.00 in 0 W/m2
07:55 46.4 °F 37.5 °F 29.59 in WNW 22.0 mph 58.0 mph 71 % 0.00 in 0 W/m2
08:00 46.5 °F 37.2 °F 29.59 in West 23.0 mph 58.0 mph 70 % 0.00 in 0 W/m2
08:05 46.6 °F 37.7 °F 29.59 in West 25.0 mph 58.0 mph 71 % 0.00 in 0 W/m2
08:10 46.5 °F 38.3 °F 29.59 in WSW 28.0 mph 28.0 mph 73 % 0.00 in 0 W/m2
08:20 46.1 °F 39.6 °F 29.58 in West 26.0 mph 26.0 mph 78 % 0.00 in 0 W/m2
08:25 45.9 °F 39.8 °F 29.59 in WNW 25.0 mph 28.0 mph 79 % 0.00 in 0 W/m2
08:30 45.7 °F 39.9 °F 29.59 in WNW 24.0 mph 58.0 mph 80 % 0.00 in 7 W/m2
08:35 45.6 °F 39.8 °F 29.59 in West 24.0 mph 58.0 mph 80 % 0.00 in 9 W/m2
08:40 45.6 °F 39.8 °F 29.59 in NW 24.0 mph 24.0 mph 80 % 0.00 in 18 W/m2
08:45 45.5 °F 39.7 °F 29.59 in West 24.0 mph 31.0 mph 80 % 0.00 in 11 W/m2
08:55 45.7 °F 37.2 °F 29.61 in WNW 30.0 mph 58.0 mph 72 % 0.00 in 18 W/m2
09:00 45.6 °F 37.1 °F 29.61 in West 26.0 mph 26.0 mph 72 % 0.00 in 21 W/m2
09:05 45.7 °F 37.2 °F 29.61 in WNW 23.0 mph 27.0 mph 72 % 0.00 in 26 W/m2
09:10 45.7 °F 37.5 °F 29.61 in WNW 24.0 mph 58.0 mph 73 % 0.00 in 33 W/m2
09:15 45.7 °F 37.5 °F 29.62 in NW 24.0 mph 58.0 mph 73 % 0.00 in 37 W/m2
09:20 45.7 °F 37.2 °F 29.62 in NW 24.0 mph 24.0 mph 72 % 0.00 in 39 W/m2
09:30 45.8 °F 36.2 °F 29.62 in WNW 25.0 mph 58.0 mph 69 % 0.00 in 113 W/m2
09:35 45.9 °F 35.9 °F 29.63 in WNW 24.0 mph 58.0 mph 68 % 0.00 in 121 W/m2
09:40 45.9 °F 35.9 °F 29.62 in West 23.0 mph 58.0 mph 68 % 0.00 in 128 W/m2
09:45 46.0 °F 36.4 °F 29.63 in NNW 24.0 mph 58.0 mph 69 % 0.00 in 139 W/m2
09:50 46.1 °F 36.9 °F 29.64 in WNW 22.0 mph 22.0 mph 70 % 0.00 in 142 W/m2
09:55 46.2 °F 37.3 °F 29.65 in WNW 21.0 mph 32.0 mph 71 % 0.00 in 144 W/m2
10:05 46.2 °F 36.6 °F 29.65 in NW 25.0 mph 58.0 mph 69 % 0.00 in 160 W/m2
10:10 46.2 °F 37.0 °F 29.65 in West 23.0 mph 58.0 mph 70 % 0.00 in 167 W/m2
10:15 46.2 °F 37.3 °F 29.66 in WNW 22.0 mph 58.0 mph 71 % 0.00 in 171 W/m2
10:20 46.2 °F 37.3 °F 29.67 in NW 23.0 mph 23.0 mph 71 % 0.00 in 178 W/m2
10:30 46.1 °F 37.2 °F 29.65 in West 24.0 mph 58.0 mph 71 % 0.00 in 183 W/m2
10:35 46.1 °F 37.2 °F 29.67 in WNW 25.0 mph 58.0 mph 71 % 0.00 in 199 W/m2
10:45 46.3 °F 37.0 °F 29.67 in WNW 24.0 mph 58.0 mph 70 % 0.00 in 227 W/m2
10:50 46.5 °F 36.9 °F 29.68 in WNW 24.0 mph 24.0 mph 69 % 0.00 in 216 W/m2
10:55 46.5 °F 36.1 °F 29.67 in NW 25.0 mph 25.0 mph 67 % 0.00 in 229 W/m2
11:00 46.5 °F 35.7 °F 29.68 in WNW 26.0 mph 26.0 mph 66 % 0.00 in 229 W/m2
11:05 46.6 °F 35.8 °F 29.67 in WNW 25.0 mph 58.0 mph 66 % 0.00 in 229 W/m2
11:10 46.6 °F 35.8 °F 29.67 in WNW 24.0 mph 58.0 mph 66 % 0.00 in 230 W/m2
11:20 46.7 °F 35.9 °F 29.66 in NW 24.0 mph 58.0 mph 66 % 0.00 in 239 W/m2
11:25 46.8 °F 35.3 °F 29.66 in West 27.0 mph 58.0 mph 64 % 0.00 in 243 W/m2
11:30 46.8 °F 34.9 °F 29.66 in WNW 31.0 mph 58.0 mph 63 % 0.00 in 253 W/m2
11:35 46.8 °F 35.3 °F 29.66 in NW 30.0 mph 58.0 mph 64 % 0.00 in 258 W/m2
11:40 46.8 °F 34.5 °F 29.66 in NNW 27.0 mph 27.0 mph 62 % 0.00 in 262 W/m2
11:45 47.0 °F 35.0 °F 29.67 in West 26.0 mph 58.0 mph 63 % 0.00 in 267 W/m2
11:50 47.0 °F 35.0 °F 29.67 in West 24.0 mph 24.0 mph 63 % 0.00 in 253 W/m2
12:00 47.1 °F 35.9 °F 29.66 in NW 26.0 mph 58.0 mph 65 % 0.00 in 258 W/m2
12:05 47.1 °F 35.5 °F 29.66 in WNW 25.0 mph 58.0 mph 64 % 0.00 in 258 W/m2
12:10 47.0 °F 35.0 °F 29.66 in WNW 29.0 mph 29.0 mph 63 % 0.00 in 260 W/m2
12:15 47.1 °F 34.7 °F 29.67 in WNW 28.0 mph 58.0 mph 62 % 0.00 in 269 W/m2
12:20 47.1 °F 34.7 °F 29.67 in WNW 24.0 mph 58.0 mph 62 % 0.00 in 260 W/m2
12:25 47.0 °F 34.6 °F 29.67 in WNW 22.0 mph 58.0 mph 62 % 0.00 in 264 W/m2
12:35 47.1 °F 35.1 °F 29.68 in WNW 23.0 mph 58.0 mph 63 % 0.00 in 334 W/m2
12:40 47.2 °F 35.6 °F 29.69 in WNW 21.0 mph 58.0 mph 64 % 0.00 in 306 W/m2
12:45 47.3 °F 35.7 °F 29.69 in West 21.0 mph 58.0 mph 64 % 0.00 in 325 W/m2
12:50 47.5 °F 35.9 °F 29.69 in WNW 21.0 mph 21.0 mph 64 % 0.00 in 295 W/m2
12:55 47.6 °F 35.6 °F 29.69 in West 20.0 mph 35.0 mph 63 % 0.00 in 253 W/m2
13:00 47.3 °F 35.3 °F 29.70 in NNW 23.0 mph 58.0 mph 63 % 0.00 in 260 W/m2
13:10 47.0 °F 34.6 °F 29.70 in West 25.0 mph 25.0 mph 62 % 0.00 in 244 W/m2
13:15 46.9 °F 34.1 °F 29.70 in NW 24.0 mph 26.0 mph 61 % 0.00 in 220 W/m2
13:20 46.9 °F 34.6 °F 29.71 in WNW 22.0 mph 22.0 mph 62 % 0.00 in 227 W/m2
13:25 46.8 °F 34.0 °F 29.71 in West 21.0 mph 58.0 mph 61 % 0.00 in 244 W/m2
13:30 46.9 °F 34.6 °F 29.72 in NW 19.0 mph 58.0 mph 62 % 0.00 in 227 W/m2
13:35 46.8 °F 34.0 °F 29.71 in West 20.0 mph 58.0 mph 61 % 0.00 in 216 W/m2
13:40 46.8 °F 34.0 °F 29.72 in NW 22.0 mph 58.0 mph 61 % 0.00 in 234 W/m2
13:50 46.7 °F 34.0 °F 29.71 in WNW 24.0 mph 24.0 mph 61 % 0.00 in 230 W/m2
13:55 46.7 °F 34.0 °F 29.71 in West 24.0 mph 58.0 mph 61 % 0.00 in 236 W/m2
14:00 46.7 °F 34.0 °F 29.71 in WNW 22.0 mph 58.0 mph 61 % 0.00 in 186 W/m2
14:10 46.4 °F 33.7 °F 29.71 in WNW 25.0 mph 25.0 mph 61 % 0.00 in 135 W/m2
14:15 46.1 °F 33.4 °F 29.71 in WNW 24.0 mph 26.0 mph 61 % 0.00 in 83 W/m2
14:25 45.8 °F 34.3 °F 29.70 in WNW 23.0 mph 58.0 mph 64 % 0.00 in 163 W/m2
14:30 45.7 °F 34.6 °F 29.71 in WNW 22.0 mph 58.0 mph 65 % 0.00 in 160 W/m2
14:35 45.7 °F 35.0 °F 29.71 in WNW 21.0 mph 58.0 mph 66 % 0.00 in 121 W/m2
14:40 45.7 °F 34.6 °F 29.71 in WNW 19.0 mph 19.0 mph 65 % 0.00 in 137 W/m2
14:45 45.5 °F 34.4 °F 29.71 in West 20.0 mph 28.0 mph 65 % 0.00 in 107 W/m2
14:50 45.3 °F 34.2 °F 29.71 in West 21.0 mph 58.0 mph 65 % 0.00 in 98 W/m2
14:55 45.1 °F 34.0 °F 29.72 in WNW 22.0 mph 58.0 mph 65 % 0.00 in 105 W/m2
15:05 44.7 °F 33.3 °F 29.72 in WNW 21.0 mph 58.0 mph 64 % 0.00 in 77 W/m2
15:10 44.6 °F 33.2 °F 29.73 in WNW 20.0 mph 20.0 mph 64 % 0.00 in 76 W/m2
15:15 44.4 °F 33.4 °F 29.73 in WNW 22.0 mph 26.0 mph 65 % 0.00 in 40 W/m2
15:20 44.3 °F 33.7 °F 29.72 in West 23.0 mph 23.0 mph 66 % 0.00 in 33 W/m2
15:25 44.1 °F 33.5 °F 29.73 in WNW 22.0 mph 58.0 mph 66 % 0.00 in 30 W/m2
15:30 44.0 °F 33.4 °F 29.72 in WNW 22.0 mph 58.0 mph 66 % 0.00 in 30 W/m2
15:40 43.9 °F 33.3 °F 29.72 in WNW 25.0 mph 25.0 mph 66 % 0.00 in 30 W/m2
15:45 43.8 °F 33.6 °F 29.72 in NNW 24.0 mph 27.0 mph 67 % 0.00 in 16 W/m2
15:50 43.8 °F 33.9 °F 29.72 in West 23.0 mph 23.0 mph 68 % 0.00 in 21 W/m2
15:55 43.8 °F 34.3 °F 29.74 in WNW 24.0 mph 24.0 mph 69 % 0.00 in 12 W/m2
16:00 43.2 °F 35.1 °F 29.74 in WNW 24.0 mph 24.0 mph 73 % 0.00 in 9 W/m2
16:05 42.6 °F 34.5 °F 29.74 in WNW 22.0 mph 58.0 mph 73 % 0.00 in 7 W/m2
16:10 42.5 °F 34.1 °F 29.74 in NW 21.0 mph 58.0 mph 72 % 0.00 in 5 W/m2
16:20 42.4 °F 33.3 °F 29.74 in WNW 19.0 mph 58.0 mph 70 % 0.00 in 0 W/m2
16:25 42.5 °F 33.4 °F 29.74 in NW 19.0 mph 58.0 mph 70 % 0.00 in 0 W/m2
16:30 42.5 °F 33.0 °F 29.74 in West 20.0 mph 20.0 mph 69 % 0.00 in 0 W/m2
16:35 42.6 °F 33.1 °F 29.74 in West 21.0 mph 21.0 mph 69 % 0.00 in 0 W/m2
16:40 42.7 °F 33.2 °F 29.74 in WNW 21.0 mph 58.0 mph 69 % 0.00 in 0 W/m2
16:50 42.7 °F 33.2 °F 29.75 in WSW 20.0 mph 20.0 mph 69 % 0.00 in 0 W/m2
16:55 42.6 °F 33.1 °F 29.75 in WNW 19.0 mph 58.0 mph 69 % 0.00 in 0 W/m2
17:00 42.6 °F 33.5 °F 29.75 in WNW 17.0 mph 58.0 mph 70 % 0.00 in 0 W/m2
17:05 42.5 °F 33.4 °F 29.75 in West 18.0 mph 58.0 mph 70 % 0.00 in 0 W/m2
17:10 42.6 °F 33.5 °F 29.75 in NW 21.0 mph 58.0 mph 70 % 0.00 in 0 W/m2
17:15 42.7 °F 33.9 °F 29.76 in West 21.0 mph 58.0 mph 71 % 0.00 in 0 W/m2
17:25 42.6 °F 34.2 °F 29.75 in WNW 19.0 mph 19.0 mph 72 % 0.00 in 0 W/m2
17:30 42.7 °F 33.9 °F 29.76 in West 20.0 mph 20.0 mph 71 % 0.00 in 0 W/m2
17:35 42.6 °F 33.9 °F 29.76 in NW 18.0 mph 58.0 mph 71 % 0.00 in 0 W/m2
17:40 42.5 °F 33.8 °F 29.76 in WNW 18.0 mph 58.0 mph 71 % 0.00 in 0 W/m2
17:45 42.5 °F 33.4 °F 29.76 in West 20.0 mph 58.0 mph 70 % 0.00 in 0 W/m2
17:55 42.4 °F 33.3 °F 29.76 in West 23.0 mph 58.0 mph 70 % 0.00 in 0 W/m2
18:00 42.3 °F 33.2 °F 29.76 in WNW 22.0 mph 22.0 mph 70 % 0.00 in 0 W/m2
18:05 42.3 °F 33.2 °F 29.76 in WNW 22.0 mph 58.0 mph 70 % 0.00 in 0 W/m2
18:15 42.3 °F 33.9 °F 29.77 in WNW 19.0 mph 58.0 mph 72 % 0.00 in 0 W/m2
18:20 42.1 °F 34.1 °F 29.77 in NW 17.0 mph 17.0 mph 73 % 0.00 in 0 W/m2
18:25 42.0 °F 34.3 °F 29.77 in WNW 15.0 mph 18.0 mph 74 % 0.00 in 0 W/m2
18:35 41.9 °F 34.2 °F 29.78 in West 14.0 mph 21.0 mph 74 % 0.00 in 0 W/m2
18:40 41.9 °F 33.9 °F 29.78 in WNW 17.0 mph 17.0 mph 73 % 0.00 in 0 W/m2
18:55 41.9 °F 33.9 °F 29.77 in WNW 15.0 mph 26.0 mph 73 % 0.00 in 0 W/m2
19:00 41.9 °F 33.9 °F 29.77 in WNW 16.0 mph 22.0 mph 73 % 0.00 in 0 W/m2
19:05 41.9 °F 33.5 °F 29.76 in West 18.0 mph 22.0 mph 72 % 0.00 in 0 W/m2
19:10 41.9 °F 33.5 °F 29.77 in West 20.0 mph 20.0 mph 72 % 0.00 in 0 W/m2
19:15 41.9 °F 33.5 °F 29.76 in West 20.0 mph 21.0 mph 72 % 0.00 in 0 W/m2
19:20 42.0 °F 33.3 °F 29.76 in WNW 20.0 mph 20.0 mph 71 % 0.00 in 0 W/m2
19:25 42.0 °F 32.9 °F 29.76 in WNW 21.0 mph 21.0 mph 70 % 0.00 in 0 W/m2
19:30 41.9 °F 32.8 °F 29.76 in NW 20.0 mph 21.0 mph 70 % 0.00 in 0 W/m2
19:40 41.9 °F 32.5 °F 29.76 in WNW 21.0 mph 21.0 mph 69 % 0.00 in 0 W/m2
19:45 41.9 °F 32.5 °F 29.76 in WNW 22.0 mph 22.0 mph 69 % 0.00 in 0 W/m2
19:50 41.7 °F 32.6 °F 29.77 in West 20.0 mph 30.0 mph 70 % 0.00 in 0 W/m2
19:55 41.7 °F 32.6 °F 29.76 in West 18.0 mph 30.0 mph 70 % 0.00 in 0 W/m2
20:00 41.6 °F 33.2 °F 29.77 in NW 19.0 mph 30.0 mph 72 % 0.00 in 0 W/m2
20:05 41.4 °F 33.7 °F 29.76 in NW 18.0 mph 30.0 mph 74 % 0.00 in 0 W/m2
20:15 40.9 °F 34.2 °F 29.77 in WNW 17.0 mph 30.0 mph 77 % 0.00 in 0 W/m2
20:20 40.8 °F 34.5 °F 29.77 in WNW 16.0 mph 16.0 mph 78 % 0.00 in 0 W/m2
20:25 40.8 °F 35.1 °F 29.76 in WNW 14.0 mph 30.0 mph 80 % 0.00 in 0 W/m2
20:30 40.8 °F 35.4 °F 29.76 in WNW 15.0 mph 15.0 mph 81 % 0.00 in 0 W/m2
20:35 40.7 °F 35.0 °F 29.76 in NW 19.0 mph 25.0 mph 80 % 0.00 in 0 W/m2
20:40 40.9 °F 34.6 °F 29.76 in WNW 22.0 mph 22.0 mph 78 % 0.00 in 0 W/m2
20:45 41.1 °F 34.1 °F 29.76 in NW 23.0 mph 23.0 mph 76 % 0.00 in 0 W/m2
20:55 41.2 °F 33.9 °F 29.75 in WNW 22.0 mph 30.0 mph 75 % 0.00 in 0 W/m2
21:05 41.2 °F 33.5 °F 29.76 in WNW 20.0 mph 30.0 mph 74 % 0.00 in 0 W/m2
21:10 41.2 °F 33.5 °F 29.76 in West 19.0 mph 30.0 mph 74 % 0.00 in 0 W/m2
21:15 41.2 °F 33.9 °F 29.76 in West 19.0 mph 30.0 mph 75 % 0.00 in 0 W/m2
21:20 41.1 °F 34.1 °F 29.76 in West 20.0 mph 30.0 mph 76 % 0.00 in 0 W/m2
21:30 40.6 °F 34.3 °F 29.76 in West 23.0 mph 30.0 mph 78 % 0.00 in 0 W/m2
21:35 40.4 °F 34.4 °F 29.76 in West 19.0 mph 30.0 mph 79 % 0.00 in 0 W/m2
21:40 40.5 °F 34.8 °F 29.77 in West 18.0 mph 30.0 mph 80 % 0.00 in 0 W/m2
21:45 40.6 °F 35.5 °F 29.77 in West 22.0 mph 30.0 mph 82 % 0.00 in 0 W/m2
21:50 40.2 °F 35.8 °F 29.77 in WNW 22.0 mph 22.0 mph 84 % 0.00 in 0 W/m2
21:55 39.9 °F 35.8 °F 29.77 in WNW 19.0 mph 23.0 mph 85 % 0.00 in 0 W/m2
22:00 39.6 °F 35.8 °F 29.76 in West 17.0 mph 17.0 mph 86 % 0.00 in 0 W/m2
22:10 39.9 °F 35.5 °F 29.76 in West 16.0 mph 30.0 mph 84 % 0.00 in 0 W/m2
22:15 40.2 °F 35.4 °F 29.76 in WSW 18.0 mph 30.0 mph 83 % 0.00 in 0 W/m2
22:20 40.5 °F 35.1 °F 29.76 in WNW 20.0 mph 20.0 mph 81 % 0.00 in 0 W/m2
22:25 40.7 °F 35.0 °F 29.76 in West 21.0 mph 35.0 mph 80 % 0.00 in 0 W/m2
22:30 40.8 °F 34.8 °F 29.75 in West 23.0 mph 23.0 mph 79 % 0.00 in 0 W/m2
22:35 40.9 °F 34.9 °F 29.75 in West 23.0 mph 29.0 mph 79 % 0.00 in 0 W/m2
22:45 40.9 °F 34.6 °F 29.75 in West 23.0 mph 35.0 mph 78 % 0.00 in 0 W/m2
22:50 41.1 °F 34.1 °F 29.75 in WNW 23.0 mph 23.0 mph 76 % 0.00 in 0 W/m2
22:55 41.1 °F 34.4 °F 29.75 in WNW 22.0 mph 30.0 mph 77 % 0.00 in 0 W/m2
23:00 41.1 °F 34.4 °F 29.75 in WNW 21.0 mph 30.0 mph 77 % 0.00 in 0 W/m2
23:05 41.1 °F 34.8 °F 29.75 in WNW 22.0 mph 30.0 mph 78 % 0.00 in 0 W/m2
23:10 41.2 °F 34.5 °F 29.75 in NNW 21.0 mph 21.0 mph 77 % 0.00 in 0 W/m2
23:20 41.4 °F 34.7 °F 29.75 in NW 18.0 mph 18.0 mph 77 % 0.00 in 0 W/m2
23:25 41.5 °F 34.8 °F 29.74 in WNW 19.0 mph 19.0 mph 77 % 0.00 in 0 W/m2
23:30 41.6 °F 34.9 °F 29.75 in West 18.0 mph 18.0 mph 77 % 0.00 in 0 W/m2
23:35 41.5 °F 35.2 °F 29.75 in NW 13.0 mph 30.0 mph 78 % 0.00 in 0 W/m2
23:40 41.3 °F 35.0 °F 29.75 in WNW 13.0 mph 30.0 mph 78 % 0.00 in 0 W/m2
23:45 41.4 °F 34.7 °F 29.74 in WNW 16.0 mph 30.0 mph 77 % 0.00 in 0 W/m2
23:50 41.4 °F 34.7 °F 29.74 in WNW 19.0 mph 30.0 mph 77 % 0.00 in 0 W/m2
23:55 41.4 °F 34.4 °F 29.74 in West 20.0 mph 30.0 mph 76 % 0.00 in 0 W/m2
Delerius-Weather
Compliments of Weather Underground - 2 mb

Data updates at regular intervals.